createdAt,value
2018-11-20T00:05:35.234Z,2.50
2018-11-20T00:08:42.593Z,2.60
2018-11-20T00:11:50.093Z,2.60
2018-11-20T00:14:45.653Z,2.50
2018-11-20T00:17:55.666Z,2.50
2018-11-20T00:21:03.047Z,2.50
2018-11-20T00:24:07.976Z,2.60
2018-11-20T00:27:15.232Z,2.50
2018-11-20T00:30:22.619Z,2.50
2018-11-20T00:33:30.051Z,2.40
2018-11-20T00:36:37.546Z,2.60
2018-11-20T00:39:33.903Z,2.60
2018-11-20T00:42:41.613Z,2.60
2018-11-20T00:45:49.003Z,2.60
2018-11-20T00:48:56.196Z,2.60
2018-11-20T00:55:10.515Z,2.60
2018-11-20T00:58:18.107Z,2.60
2018-11-20T01:01:25.591Z,2.50
2018-11-20T01:04:33.226Z,2.50
2018-11-20T01:07:40.626Z,2.50
2018-11-20T01:10:47.960Z,2.60
2018-11-20T01:13:55.278Z,2.50
2018-11-20T01:17:02.714Z,2.60
2018-11-20T01:19:58.362Z,2.60
2018-11-20T01:23:06.002Z,2.60
2018-11-20T01:26:02.968Z,2.60
2018-11-20T01:29:10.512Z,2.60
2018-11-20T01:32:17.975Z,2.60
2018-11-20T01:35:25.629Z,2.50
2018-11-20T01:38:33.045Z,2.70
2018-11-20T01:41:39.524Z,2.60
2018-11-20T01:44:38.405Z,2.60
2018-11-20T01:47:35.167Z,2.60
2018-11-20T02:00:02.809Z,2.40
2018-11-20T02:03:10.314Z,2.50
2018-11-20T02:06:20.402Z,2.30
2018-11-20T02:09:27.922Z,2.30
2018-11-20T02:12:35.344Z,2.40
2018-11-20T02:15:42.691Z,2.30
2018-11-20T02:18:50.026Z,2.40
2018-11-20T02:25:04.182Z,2.30
2018-11-20T02:55:54.057Z,2.50
2018-11-20T02:59:01.335Z,2.50
2018-11-20T03:02:08.694Z,2.40
2018-11-20T03:05:15.270Z,2.40
2018-11-20T03:08:22.688Z,2.20
2018-11-20T03:11:30.300Z,2.60
2018-11-20T03:14:37.767Z,2.60
2018-11-20T03:17:45.241Z,2.60
2018-11-20T03:20:52.672Z,2.60
2018-11-20T03:24:00.112Z,2.60
2018-11-20T03:27:07.446Z,2.60
2018-11-20T03:30:33.642Z,2.70
2018-11-20T03:33:40.889Z,2.70
2018-11-20T03:36:48.243Z,2.70
2018-11-20T03:39:55.680Z,2.70
2018-11-20T03:42:50.063Z,2.70
2018-11-20T03:45:46.720Z,2.70
2018-11-20T03:49:13.039Z,2.70
2018-11-20T03:52:22.024Z,2.60
2018-11-20T03:55:29.401Z,2.60
2018-11-20T03:58:36.866Z,2.60
2018-11-20T04:01:44.341Z,2.60
2018-11-20T04:04:54.179Z,2.60
2018-11-20T04:08:01.675Z,2.50
2018-11-20T04:11:09.108Z,2.50
2018-11-20T04:14:16.432Z,2.50
2018-11-20T04:17:23.677Z,2.50
2018-11-20T04:20:31.259Z,2.40
2018-11-20T04:23:39.136Z,2.40
2018-11-20T04:26:46.451Z,2.30
2018-11-20T04:29:53.008Z,2.30
2018-11-20T04:33:12.379Z,2.30
2018-11-20T04:36:14.614Z,2.40
2018-11-20T04:39:11.931Z,2.40
2018-11-20T04:42:19.211Z,2.50
2018-11-20T04:45:26.672Z,2.50
2018-11-20T04:48:34.213Z,2.60
2018-11-20T04:51:41.590Z,2.60
2018-11-20T04:54:48.889Z,2.70
2018-11-20T04:57:58.160Z,2.70
2018-11-20T05:01:05.565Z,2.70
2018-11-20T05:04:13.128Z,2.60
2018-11-20T05:07:20.769Z,2.60
2018-11-20T05:10:19.422Z,2.60
2018-11-20T05:13:27.034Z,2.50
2018-11-20T05:16:34.509Z,2.60
2018-11-20T05:19:41.956Z,2.60
2018-11-20T05:22:49.294Z,2.60
2018-11-20T05:25:56.793Z,2.50
2018-11-20T05:29:04.207Z,2.50
2018-11-20T05:32:12.025Z,2.60
2018-11-20T05:35:20.091Z,2.60
2018-11-20T05:38:27.448Z,2.70
2018-11-20T05:41:34.827Z,2.60
2018-11-20T05:44:42.345Z,2.60
2018-11-20T05:47:49.472Z,2.70
2018-11-20T05:50:56.990Z,2.70
2018-11-20T05:54:04.390Z,2.70
2018-11-20T06:00:18.444Z,2.70
2018-11-20T06:03:25.660Z,2.70
2018-11-20T06:06:33.180Z,2.70
2018-11-20T06:09:21.610Z,2.80
2018-11-20T06:12:28.913Z,2.70
2018-11-20T06:21:49.722Z,2.70
2018-11-20T06:24:56.949Z,2.70
2018-11-20T06:34:20.132Z,2.70
2018-11-20T06:37:27.613Z,2.70
2018-11-20T06:40:34.902Z,2.60
2018-11-20T06:43:42.244Z,2.70
2018-11-20T06:46:49.816Z,2.70
2018-11-20T07:17:58.108Z,2.80
2018-11-20T07:21:05.673Z,2.70
2018-11-20T07:27:20.026Z,2.80
2018-11-20T07:30:27.714Z,2.80
2018-11-20T07:33:35.376Z,2.80
2018-11-20T07:36:42.820Z,2.70
2018-11-20T07:39:52.942Z,2.80
2018-11-20T07:43:00.268Z,2.80
2018-11-20T07:46:07.649Z,2.90
2018-11-20T07:52:21.912Z,2.80
2018-11-20T07:55:29.223Z,2.80
2018-11-20T07:58:36.553Z,2.80
2018-11-20T08:01:36.125Z,2.80
2018-11-20T08:04:36.246Z,3.00
2018-11-20T08:07:28.665Z,3.10
2018-11-20T08:10:27.563Z,3.10
2018-11-20T08:13:19.178Z,3.30
2018-11-20T08:16:05.517Z,3.30
2018-11-20T08:18:57.676Z,3.20
2018-11-20T08:21:53.566Z,5.10
2018-11-20T08:24:53.226Z,3.90
2018-11-20T08:27:53.740Z,3.80
2018-11-20T08:30:54.953Z,4.00
2018-11-20T08:43:05.931Z,4.50
2018-11-20T08:46:05.473Z,4.60
2018-11-20T08:49:08.830Z,5.00
2018-11-20T08:52:08.450Z,5.50
2018-11-20T08:55:08.357Z,5.60
2018-11-20T08:58:08.315Z,5.80
2018-11-20T09:00:58.867Z,6.00
2018-11-20T09:04:01.021Z,6.00
2018-11-20T09:07:01.318Z,6.00
2018-11-20T09:10:01.322Z,6.10
2018-11-20T09:13:01.445Z,6.00
2018-11-20T09:19:03.806Z,5.90
2018-11-20T09:25:11.827Z,6.20
2018-11-20T09:28:19.264Z,6.30
2018-11-20T09:31:26.770Z,6.60
2018-11-20T09:34:34.317Z,6.90
2018-11-20T09:37:41.677Z,5.90
2018-11-20T09:41:07.854Z,7.10
2018-11-20T09:47:22.036Z,7.20
2018-11-20T09:50:32.162Z,7.40
2018-11-20T09:53:39.544Z,7.60
2018-11-20T09:56:54.194Z,7.50
2018-11-20T10:00:01.814Z,7.40
2018-11-20T10:02:59.864Z,7.40
2018-11-20T10:06:07.276Z,7.80
2018-11-20T10:09:14.768Z,7.70
2018-11-20T10:12:22.261Z,7.60
2018-11-20T10:15:29.540Z,7.50
2018-11-20T10:18:36.934Z,7.60
2018-11-20T10:21:44.421Z,7.60
2018-11-20T10:24:52.013Z,8.20
2018-11-20T10:27:53.182Z,8.20
2018-11-20T10:31:00.650Z,8.20
2018-11-20T10:34:08.172Z,8.40
2018-11-20T10:37:15.501Z,8.40
2018-11-20T10:40:22.976Z,8.40
2018-11-20T10:43:30.365Z,8.30
2018-11-20T10:46:27.332Z,8.30
2018-11-20T10:49:34.690Z,8.80
2018-11-20T10:52:33.040Z,9.10
2018-11-20T10:55:40.274Z,8.90
2018-11-20T10:58:47.538Z,8.90
2018-11-20T11:01:54.789Z,8.70
2018-11-20T11:05:02.183Z,8.80
2018-11-20T11:08:09.504Z,8.90
2018-11-20T11:11:16.913Z,8.90
2018-11-20T11:14:24.385Z,8.80
2018-11-20T11:17:31.815Z,8.70
2018-11-20T11:20:39.517Z,8.50
2018-11-20T11:23:47.334Z,8.50
2018-11-20T11:26:54.716Z,8.70
2018-11-20T11:30:02.183Z,8.60
2018-11-20T11:33:09.768Z,8.60
2018-11-20T11:36:17.146Z,8.60
2018-11-20T11:39:20.812Z,8.50
2018-11-20T11:42:28.526Z,8.80
2018-11-20T11:45:36.127Z,8.90
2018-11-20T11:48:43.469Z,8.90
2018-11-20T11:51:50.816Z,8.70
2018-11-20T11:54:58.264Z,8.70
2018-11-20T11:58:05.606Z,8.90
2018-11-20T12:01:13.095Z,8.80
2018-11-20T12:07:32.012Z,8.70
2018-11-20T12:10:39.477Z,8.50
2018-11-20T12:13:46.910Z,8.50
2018-11-20T12:17:13.154Z,8.60
2018-11-20T12:20:20.526Z,8.70
2018-11-20T12:23:28.176Z,8.70
2018-11-20T12:26:35.635Z,8.70
2018-11-20T12:29:43.124Z,8.60
2018-11-20T12:32:52.628Z,8.70
2018-11-20T12:36:00.155Z,8.70
2018-11-20T12:39:07.715Z,8.70
2018-11-20T12:42:06.696Z,8.70
2018-11-20T12:45:15.615Z,8.70
2018-11-20T12:48:22.391Z,8.70
2018-11-20T12:51:28.729Z,8.70
2018-11-20T12:54:29.806Z,8.80
2018-11-20T12:57:35.037Z,8.70
2018-11-20T13:00:42.679Z,8.70
2018-11-20T13:03:50.061Z,8.70
2018-11-20T13:06:57.448Z,8.60
2018-11-20T13:10:08.387Z,8.60
2018-11-20T13:13:13.290Z,8.60
2018-11-20T13:16:20.732Z,8.60
2018-11-20T13:19:29.392Z,8.80
2018-11-20T13:22:35.661Z,8.90
2018-11-20T13:25:33.490Z,8.90
2018-11-20T13:28:40.822Z,8.90
2018-11-20T13:31:48.162Z,8.70
2018-11-20T13:34:55.580Z,8.80
2018-11-20T13:38:02.948Z,8.70
2018-11-20T13:41:29.415Z,8.50
2018-11-20T13:44:36.898Z,8.50
2018-11-20T13:47:44.372Z,8.50
2018-11-20T13:50:51.926Z,8.40
2018-11-20T13:57:06.180Z,8.60
2018-11-20T14:00:14.343Z,8.60
2018-11-20T14:03:12.183Z,8.40
2018-11-20T14:06:19.527Z,8.10
2018-11-20T14:09:28.060Z,8.20
2018-11-20T14:12:35.484Z,8.30
2018-11-20T14:15:42.984Z,8.70
2018-11-20T14:18:50.336Z,8.10
2018-11-20T14:25:04.969Z,8.00
2018-11-20T14:28:14.220Z,8.00
2018-11-20T14:31:20.133Z,8.00
2018-11-20T14:34:27.823Z,7.90
2018-11-20T14:37:35.541Z,8.00
2018-11-20T14:40:43.033Z,8.00
2018-11-20T14:43:50.514Z,7.80
2018-11-20T14:46:58.299Z,7.80
2018-11-20T14:50:05.984Z,7.60
2018-11-20T14:53:13.700Z,7.60
2018-11-20T14:56:21.329Z,7.60
2018-11-20T14:59:47.828Z,7.50
2018-11-20T15:02:58.222Z,7.40
2018-11-20T15:06:24.594Z,7.50
2018-11-20T15:09:31.966Z,7.50
2018-11-20T15:12:39.388Z,7.30
2018-11-20T15:28:03.729Z,6.70
2018-11-20T15:31:12.121Z,6.50
2018-11-20T15:34:19.427Z,6.50
2018-11-20T15:37:26.991Z,6.50
2018-11-20T15:40:34.328Z,6.30
2018-11-20T15:43:41.857Z,6.30
2018-11-20T15:46:49.218Z,6.20
2018-11-20T15:49:56.675Z,6.10
2018-11-20T15:53:04.005Z,6.00
2018-11-20T15:56:11.385Z,6.00
2018-11-20T15:59:18.891Z,5.90
2018-11-20T16:02:26.279Z,5.90
2018-11-20T16:05:33.684Z,5.80
2018-11-20T16:08:31.500Z,5.40
2018-11-20T16:11:39.012Z,5.30
2018-11-20T16:14:46.572Z,5.20
2018-11-20T16:17:54.036Z,5.10
2018-11-20T16:21:01.337Z,5.00
2018-11-20T16:24:08.817Z,4.90
2018-11-20T16:27:16.314Z,4.70
2018-11-20T16:30:24.200Z,4.70
2018-11-20T16:33:31.779Z,4.70
2018-11-20T16:36:39.162Z,4.40
2018-11-20T16:39:46.568Z,4.40
2018-11-20T16:42:53.772Z,4.40
2018-11-20T16:46:02.881Z,4.20
2018-11-20T16:49:08.830Z,4.10
2018-11-20T16:52:16.373Z,4.10
2018-11-20T16:55:23.824Z,4.00
2018-11-20T16:58:26.463Z,4.00
2018-11-20T17:01:33.901Z,4.00
2018-11-20T17:04:44.375Z,4.00
2018-11-20T17:07:56.150Z,4.00
2018-11-20T17:10:59.479Z,3.90
2018-11-20T17:14:06.918Z,3.80
2018-11-20T17:17:14.432Z,3.60
2018-11-20T17:20:21.873Z,3.60
2018-11-20T17:23:29.309Z,3.60
2018-11-20T17:26:36.874Z,3.40
2018-11-20T17:29:44.436Z,3.40
2018-11-20T17:33:10.749Z,3.30
2018-11-20T17:36:18.125Z,3.30
2018-11-20T17:39:27.639Z,3.30
2018-11-20T17:45:41.907Z,3.00
2018-11-20T17:48:49.363Z,3.00
2018-11-20T17:51:56.823Z,3.00
2018-11-20T17:55:03.002Z,2.90
2018-11-20T18:01:17.481Z,2.70
2018-11-20T18:04:15.846Z,2.80
2018-11-20T18:13:36.728Z,2.70
2018-11-20T18:16:44.451Z,2.80
2018-11-20T18:19:51.776Z,2.90
2018-11-20T18:22:59.290Z,2.80
2018-11-20T18:26:06.654Z,2.90
2018-11-20T18:29:14.140Z,2.80
2018-11-20T18:32:21.719Z,2.70
2018-11-20T18:35:29.173Z,2.70
2018-11-20T18:38:36.377Z,2.70
2018-11-20T18:44:38.700Z,2.70
2018-11-20T18:47:38.764Z,2.60
2018-11-20T18:50:39.265Z,2.50
2018-11-20T18:53:45.420Z,2.50
2018-11-20T19:05:53.337Z,2.20
2018-11-20T19:08:53.857Z,2.20
2018-11-20T19:11:53.972Z,2.30
2018-11-20T19:14:55.689Z,2.30
2018-11-20T19:21:09.777Z,2.20
2018-11-20T19:24:17.389Z,2.10
2018-11-20T19:27:24.953Z,2.20
2018-11-20T19:30:32.590Z,2.10
2018-11-20T19:37:00.784Z,2.20
2018-11-20T19:40:08.436Z,2.10
2018-11-20T19:43:15.626Z,2.10
2018-11-20T19:46:23.180Z,2.10
2018-11-20T19:49:30.555Z,1.90
2018-11-20T20:02:00.442Z,2.00
2018-11-20T20:08:12.404Z,1.60
2018-11-20T20:20:40.311Z,1.50
2018-11-20T20:23:37.841Z,1.40
2018-11-20T20:26:45.452Z,1.40
2018-11-20T20:29:53.114Z,1.30
2018-11-20T20:33:00.551Z,1.30
2018-11-20T20:36:07.982Z,1.20
2018-11-20T20:39:15.362Z,1.30
2018-11-20T20:42:16.680Z,1.20
2018-11-20T20:45:24.325Z,1.20
2018-11-20T20:48:35.791Z,1.20
2018-11-20T20:51:39.721Z,1.20
2018-11-20T20:54:47.126Z,1.10
2018-11-20T20:57:54.623Z,1.00
2018-11-20T21:01:02.122Z,1.00
2018-11-20T21:04:09.540Z,1.20
2018-11-20T21:07:17.010Z,1.10
2018-11-20T21:10:24.448Z,1.00
2018-11-20T21:13:31.787Z,0.90
2018-11-20T21:16:39.163Z,1.00
2018-11-20T21:19:46.964Z,0.90
2018-11-20T21:22:56.733Z,1.00
2018-11-20T21:26:04.139Z,1.00
2018-11-20T21:35:27.002Z,1.00
2018-11-20T21:38:34.424Z,1.00
2018-11-20T21:41:43.484Z,0.70
2018-11-20T21:44:43.884Z,0.70
2018-11-20T21:47:51.372Z,0.70
2018-11-20T21:50:58.728Z,0.60
2018-11-20T21:54:06.080Z,0.60
2018-11-20T21:57:13.416Z,0.60
2018-11-20T22:00:24.062Z,0.60
2018-11-20T22:03:31.563Z,0.50
2018-11-20T22:06:38.975Z,0.50
2018-11-20T22:09:46.424Z,0.50
2018-11-20T22:12:53.867Z,0.50
2018-11-20T22:16:01.270Z,0.60
2018-11-20T22:19:08.527Z,0.50
2018-11-20T22:22:15.967Z,0.50
2018-11-20T22:25:23.412Z,0.40
2018-11-20T22:28:30.970Z,0.40
2018-11-20T22:31:38.593Z,0.40
2018-11-20T22:34:46.068Z,0.40
2018-11-20T22:37:41.302Z,0.40
2018-11-20T22:40:48.771Z,0.40
2018-11-20T22:43:56.158Z,0.50
2018-11-20T22:47:03.640Z,0.50
2018-11-20T22:50:11.139Z,0.40
2018-11-20T22:53:18.528Z,0.30
2018-11-20T22:56:25.796Z,0.40
2018-11-20T22:59:33.082Z,0.40
2018-11-20T23:02:40.622Z,0.40
2018-11-20T23:05:47.036Z,0.40
2018-11-20T23:08:35.414Z,0.40
2018-11-20T23:11:24.274Z,0.30
2018-11-20T23:14:13.008Z,0.30
2018-11-20T23:17:01.840Z,0.30
2018-11-20T23:19:50.406Z,0.20
2018-11-20T23:22:39.317Z,0.10
2018-11-20T23:25:28.470Z,0.00
2018-11-20T23:28:17.118Z,-0.10
2018-11-20T23:31:05.713Z,-0.20
2018-11-20T23:33:54.313Z,-0.20
2018-11-20T23:36:43.315Z,-0.20
2018-11-20T23:39:32.126Z,-0.30
2018-11-20T23:42:23.990Z,-0.20
2018-11-20T23:45:11.237Z,-0.30
2018-11-20T23:48:00.164Z,-0.40
2018-11-20T23:50:48.633Z,-0.30
2018-11-20T23:53:37.753Z,-0.30
2018-11-20T23:56:26.639Z,-0.40
2018-11-20T23:59:15.795Z,-0.30
